createdAt,value
2023-04-18T00:02:20.525Z,10.05
2023-04-18T00:07:23.504Z,9.73
2023-04-18T00:12:44.857Z,9.71
2023-04-18T00:17:49.320Z,9.63
2023-04-18T00:22:53.237Z,9.78
2023-04-18T00:27:56.097Z,9.79
2023-04-18T00:33:01.694Z,9.69
2023-04-18T00:38:20.819Z,9.65
2023-04-18T00:43:24.651Z,9.77
2023-04-18T00:48:28.978Z,9.72
2023-04-18T00:53:32.025Z,9.71
2023-04-18T00:58:34.946Z,9.85
2023-04-18T01:03:58.568Z,10.05
2023-04-18T01:09:02.265Z,10.26
2023-04-18T01:14:06.179Z,10.21
2023-04-18T01:19:12.940Z,10.10
2023-04-18T01:24:18.751Z,9.97
2023-04-18T01:29:33.531Z,9.85
2023-04-18T01:34:36.380Z,9.80
2023-04-18T01:39:43.294Z,9.71
2023-04-18T01:44:46.144Z,9.52
2023-04-18T01:49:49.037Z,9.28
2023-04-18T01:55:12.280Z,9.00
2023-04-18T02:00:15.794Z,8.81
2023-04-18T02:05:18.579Z,8.78
2023-04-18T02:10:23.184Z,8.67
2023-04-18T02:15:26.418Z,8.53
2023-04-18T02:20:46.598Z,8.40
2023-04-18T02:25:50.855Z,8.46
2023-04-18T02:30:53.909Z,8.48
2023-04-18T02:35:56.768Z,8.46
2023-04-18T02:41:01.047Z,8.48
2023-04-18T02:46:24.295Z,8.57
2023-04-18T02:51:28.098Z,8.64
2023-04-18T02:56:39.828Z,8.69
2023-04-18T03:01:59.680Z,8.68
2023-04-18T03:07:02.844Z,8.74
2023-04-18T03:12:12.681Z,8.76
2023-04-18T03:17:15.837Z,8.70
2023-04-18T03:22:24.655Z,8.73
2023-04-18T03:27:32.856Z,8.64
2023-04-18T03:32:36.417Z,8.78
2023-04-18T03:37:39.552Z,8.91
2023-04-18T03:42:45.478Z,8.82
2023-04-18T03:47:48.559Z,8.72
2023-04-18T03:52:53.252Z,8.41
2023-04-18T03:57:58.905Z,8.57
2023-04-18T04:03:11.669Z,8.70
2023-04-18T04:08:16.356Z,8.58
2023-04-18T04:13:22.321Z,8.73
2023-04-18T04:18:31.110Z,8.38
2023-04-18T04:23:35.970Z,8.32
2023-04-18T04:28:59.318Z,8.40
2023-04-18T04:34:05.048Z,8.28
2023-04-18T04:39:08.653Z,8.36
2023-04-18T04:44:28.353Z,8.28
2023-04-18T04:49:31.411Z,8.55
2023-04-18T04:54:34.677Z,8.93
2023-04-18T04:59:41.478Z,8.61
2023-04-18T05:04:44.676Z,8.56
2023-04-18T05:09:47.620Z,8.64
2023-04-18T05:14:51.940Z,8.37
2023-04-18T05:19:59.827Z,8.30
2023-04-18T05:25:02.789Z,8.35
2023-04-18T05:30:08.559Z,8.61
2023-04-18T05:35:11.478Z,8.41
2023-04-18T05:40:15.087Z,8.57
2023-04-18T05:45:37.577Z,8.62
2023-04-18T05:50:40.536Z,8.82
2023-04-18T05:55:43.369Z,8.63
2023-04-18T06:00:48.093Z,8.77
2023-04-18T06:05:51.089Z,8.95
2023-04-18T06:11:15.157Z,9.22
2023-04-18T06:16:19.600Z,9.13
2023-04-18T06:21:29.801Z,9.11
2023-04-18T06:26:32.716Z,9.20
2023-04-18T06:31:37.097Z,8.80
2023-04-18T06:36:49.178Z,9.10
2023-04-18T06:41:52.015Z,9.10
2023-04-18T06:47:05.373Z,9.34
2023-04-18T06:52:09.213Z,9.56
2023-04-18T06:57:19.772Z,9.73
2023-04-18T07:02:27.435Z,9.54
2023-04-18T07:07:30.794Z,9.49
2023-04-18T07:12:33.889Z,9.34
2023-04-18T07:17:38.309Z,9.20
2023-04-18T07:22:41.949Z,9.29
2023-04-18T07:28:05.467Z,9.18
2023-04-18T07:33:09.788Z,9.39
2023-04-18T07:38:18.613Z,9.48
2023-04-18T07:43:21.713Z,9.60
2023-04-18T07:48:26.872Z,9.70
2023-04-18T07:53:59.782Z,9.48
2023-04-18T07:59:02.769Z,9.83
2023-04-18T08:04:07.366Z,10.02
2023-04-18T08:09:10.460Z,10.31
2023-04-18T08:14:13.528Z,10.89
2023-04-18T08:19:18.059Z,11.05
2023-04-18T08:24:21.095Z,10.85
2023-04-18T08:29:29.736Z,10.87
2023-04-18T08:34:38.130Z,11.22
2023-04-18T08:39:41.371Z,11.63
2023-04-18T08:44:50.104Z,12.42
2023-04-18T08:49:54.411Z,12.13
2023-04-18T08:54:58.230Z,11.81
2023-04-18T09:00:02.029Z,12.33
2023-04-18T09:05:14.182Z,12.14
2023-04-18T09:10:36.571Z,11.95
2023-04-18T09:15:40.863Z,11.75
2023-04-18T09:20:47.586Z,11.66
2023-04-18T09:25:52.255Z,12.06
2023-04-18T09:30:56.228Z,11.85
2023-04-18T09:36:22.133Z,12.75
2023-04-18T09:41:25.298Z,12.31
2023-04-18T09:46:47.358Z,12.30
2023-04-18T09:51:55.872Z,12.20
2023-04-18T09:56:59.216Z,12.24
2023-04-18T10:02:03.747Z,11.94
2023-04-18T10:07:08.122Z,12.39
2023-04-18T10:12:12.477Z,12.45
2023-04-18T10:17:16.033Z,12.54
2023-04-18T10:22:34.385Z,13.02
2023-04-18T10:28:00.402Z,13.43
2023-04-18T10:33:30.303Z,14.08
2023-04-18T10:38:36.161Z,13.60
2023-04-18T10:44:21.982Z,13.89
2023-04-18T10:49:27.835Z,14.03
2023-04-18T10:54:39.022Z,13.77
2023-04-18T10:59:43.787Z,13.64
2023-04-18T11:04:50.877Z,13.59
2023-04-18T11:09:56.550Z,13.72
2023-04-18T11:15:01.357Z,13.92
2023-04-18T11:20:19.647Z,14.10
2023-04-18T11:25:25.952Z,13.84
2023-04-18T11:30:31.278Z,13.82
2023-04-18T11:35:38.109Z,14.12
2023-04-18T11:40:48.519Z,14.61
2023-04-18T11:45:55.774Z,14.67
2023-04-18T11:50:58.630Z,14.44
2023-04-18T11:56:03.681Z,14.61
2023-04-18T12:01:20.219Z,14.77
2023-04-18T12:06:23.400Z,14.78
2023-04-18T12:11:32.357Z,14.59
2023-04-18T12:16:35.441Z,14.45
2023-04-18T12:21:55.512Z,14.83
2023-04-18T12:27:00.070Z,14.76
2023-04-18T12:32:03.250Z,14.38
2023-04-18T12:37:09.990Z,14.45
2023-04-18T12:42:14.156Z,14.99
2023-04-18T12:47:17.083Z,14.82
2023-04-18T12:52:19.958Z,14.90
2023-04-18T12:57:24.362Z,14.67
2023-04-18T13:02:46.021Z,14.69
2023-04-18T13:07:49.890Z,14.60
2023-04-18T13:12:54.079Z,14.69
2023-04-18T13:17:57.479Z,14.79
2023-04-18T13:23:00.439Z,14.95
2023-04-18T13:28:21.548Z,15.19
2023-04-18T13:33:24.468Z,15.21
2023-04-18T13:38:28.578Z,15.15
2023-04-18T13:43:32.778Z,15.29
2023-04-18T13:48:35.722Z,15.45
2023-04-18T13:53:55.792Z,15.46
2023-04-18T13:59:00.345Z,15.76
2023-04-18T14:04:03.882Z,15.91
2023-04-18T14:09:07.817Z,15.84
2023-04-18T14:14:12.090Z,15.90
2023-04-18T14:19:31.919Z,15.76
2023-04-18T14:24:36.004Z,15.78
2023-04-18T14:29:42.239Z,15.96
2023-04-18T14:34:45.185Z,15.95
2023-04-18T14:39:48.597Z,16.02
2023-04-18T14:45:11.705Z,16.43
2023-04-18T14:50:15.432Z,15.91
2023-04-18T14:55:19.392Z,16.16
2023-04-18T15:00:23.705Z,16.10
2023-04-18T15:05:26.648Z,15.80
2023-04-18T15:10:46.507Z,15.69
2023-04-18T15:15:54.296Z,16.27
2023-04-18T15:20:58.493Z,16.62
2023-04-18T15:26:01.330Z,15.99
2023-04-18T15:31:06.953Z,16.23
2023-04-18T15:36:21.062Z,16.02
2023-04-18T15:41:23.905Z,16.08
2023-04-18T15:46:28.285Z,15.81
2023-04-18T15:51:31.411Z,16.03
2023-04-18T15:56:36.663Z,16.27
2023-04-18T16:01:58.078Z,16.09
2023-04-18T16:07:01.148Z,16.16
2023-04-18T16:12:04.796Z,15.77
2023-04-18T16:17:08.991Z,15.85
2023-04-18T16:22:15.013Z,15.89
2023-04-18T16:27:33.346Z,15.70
2023-04-18T16:32:38.325Z,15.94
2023-04-18T16:37:41.467Z,16.04
2023-04-18T16:42:44.574Z,16.05
2023-04-18T16:47:48.911Z,15.86
2023-04-18T16:53:09.390Z,15.84
2023-04-18T16:58:12.244Z,15.48
2023-04-18T17:03:16.661Z,15.79
2023-04-18T17:08:19.756Z,15.64
2023-04-18T17:13:26.725Z,15.40
2023-04-18T17:18:47.978Z,15.08
2023-04-18T17:23:50.983Z,15.11
2023-04-18T17:28:54.005Z,14.90
2023-04-18T17:33:58.575Z,14.80
2023-04-18T17:39:06.234Z,14.84
2023-04-18T17:44:21.978Z,14.75
2023-04-18T17:49:30.708Z,14.75
2023-04-18T17:54:33.910Z,14.71
2023-04-18T17:59:37.843Z,14.37
2023-04-18T18:04:42.595Z,14.47
2023-04-18T18:09:58.907Z,14.28
2023-04-18T18:15:01.725Z,13.95
2023-04-18T18:20:09.791Z,13.82
2023-04-18T18:25:12.796Z,13.79
2023-04-18T18:30:17.297Z,13.66
2023-04-18T18:35:36.438Z,13.50
2023-04-18T18:40:39.334Z,13.21
2023-04-18T18:45:42.231Z,13.10
2023-04-18T18:50:46.357Z,13.11
2023-04-18T18:55:49.293Z,12.82
2023-04-18T19:01:12.452Z,12.88
2023-04-18T19:06:16.768Z,12.78
2023-04-18T19:11:21.011Z,12.47
2023-04-18T19:16:23.960Z,12.46
2023-04-18T19:21:28.541Z,12.50
2023-04-18T19:26:48.377Z,12.27
2023-04-18T19:31:51.525Z,12.11
2023-04-18T19:36:55.820Z,12.23
2023-04-18T19:41:58.604Z,12.55
2023-04-18T19:47:01.561Z,12.31
2023-04-18T19:52:26.124Z,12.24
2023-04-18T19:57:28.956Z,12.32
2023-04-18T20:02:32.124Z,12.06
2023-04-18T20:07:36.658Z,11.95
2023-04-18T20:12:39.557Z,12.31
2023-04-18T20:18:01.048Z,12.50
2023-04-18T20:23:05.349Z,12.26
2023-04-18T20:28:08.402Z,11.75
2023-04-18T20:33:11.296Z,11.46
2023-04-18T20:38:15.562Z,11.52
2023-04-18T20:43:38.758Z,11.66
2023-04-18T20:48:41.543Z,11.50
2023-04-18T20:53:45.692Z,11.37
2023-04-18T20:58:48.573Z,11.26
2023-04-18T21:03:51.615Z,11.34
2023-04-18T21:09:15.288Z,11.17
2023-04-18T21:14:18.350Z,11.15
2023-04-18T21:19:21.736Z,11.20
2023-04-18T21:24:26.009Z,11.40
2023-04-18T21:29:28.940Z,11.37
2023-04-18T21:34:50.765Z,11.30
2023-04-18T21:39:54.986Z,11.04
2023-04-18T21:44:57.901Z,10.95
2023-04-18T21:50:00.745Z,11.05
2023-04-18T21:55:05.539Z,10.86
2023-04-18T22:00:27.721Z,10.74
2023-04-18T22:05:30.594Z,10.82
2023-04-18T22:10:35.200Z,10.63
2023-04-18T22:15:39.824Z,10.56
2023-04-18T22:20:43.087Z,10.85
2023-04-18T22:26:03.955Z,10.53
2023-04-18T22:31:06.796Z,10.73
2023-04-18T22:36:09.909Z,10.65
2023-04-18T22:41:14.213Z,10.87
2023-04-18T22:46:17.253Z,10.92
2023-04-18T22:51:38.796Z,10.86
2023-04-18T22:56:43.064Z,10.65
2023-04-18T23:01:46.073Z,10.69
2023-04-18T23:06:48.896Z,10.54
2023-04-18T23:11:53.232Z,10.88
2023-04-18T23:17:14.933Z,10.79
2023-04-18T23:22:17.868Z,10.74
2023-04-18T23:27:22.170Z,11.09
2023-04-18T23:32:25.250Z,11.00
2023-04-18T23:37:28.205Z,10.68
2023-04-18T23:42:52.554Z,11.08
2023-04-18T23:47:55.693Z,10.96
2023-04-18T23:52:58.670Z,11.03
2023-04-18T23:58:02.881Z,10.91
